首页
METAR-TAF:

METAR-TAF

机场 :

Mayo, 育康省, 加拿大

纬度: 63-37N, 经度: 135-52W, 海拔: 504米

当前天气观测

该预报发布于1小时和18分钟前的00:00 UTC
风速10节,风向东转东北,有时为17节阵风
温度 17°C
湿度 39%
气压 1006 hPa
能見度: 32.2公里
散云层高于5500英尺
多云层高于7500英尺
多云层高于22000英尺

METAR: CYMA 080000Z 07010G17KT 20SM SCT055 BKN075 BKN220 17/03 A2971 RMK SC3AC2CI2 CLIMAT 17.410.5/0.0 SLP077 DENSITY ALT 2600FT

时间: 18:18 (01:18 UTC)

预报

该预报发布于1小时和39分钟前的23:39 UTC
预报有效从08日的 00点(UTC)到 08日的 12点(UTC)
风速12节,风向东转东北
能見度: 10公里
散云层高于5000英尺
从 08日的 0400点(UTC)
风速8节,风向北转东北
能見度: 10公里
少量云层高于4000英尺

TAF: CYMA 072339Z 0800/0812 07012KT P6SM SCT050 FM080400 02008KT P6SM FEW040 RMK NXT FCST BY 080600Z

超过4000个机场的气象观测和天气预报(METAR&TAF报告)。

可查询的气象台以黄色和红色小点在地图上表示。

将鼠标移到小点上方,可查看气象台名称。

然后点击查看天气观测和预报。

如需切换地图:点击带黑十字的绿色按钮放大地图;点击带横线的绿色按钮缩小地图;或者点击绿色箭头查看邻近地区的地图。


METAR-TAF: